Main page
METAR-TAF:

METAR-TAF

Airports :

Cornwall Airport Newquay

Newquay Cornwall, England

latitude: 50-26N, longitude: 005-00W, elevation: 119 m

Current weather observation

The report was made 30 minutes ago, at 16:20 UTC
Wind 6 kt from the West
Temperature 12°C
Humidity 82%
Pressure 1008 hPa
Visibility 10 km or more
Few clouds at a height of 2200 ft

METAR: EGHQ 231620Z 28006KT 9999 FEW022 12/09 Q1008

Time: 17:50 (16:50 UTC)

Forecast

The report was made 2 hours and 56 minutes ago, at 13:54 UTC
Forecast valid from 23 at 15 UTC to 23 at 21 UTC
Wind 6 kt from the South
Visibility 10 km or more
Scattered clouds at a height of 2000 ft

TAF: EGHQ 231354Z 2315/2321 19006KT 9999 SCT020

Weather observations and forecasts of more than 4000 airports (METAR and TAF reports).

The available stations are represented by yellow and red dots on the map.

Hover mouse over dot to see the name of the station.

Then click to see weather observations and forecasts.

To change the map : click on the green buttons with a black cross to zoom in, on the green button with a dash to zoom out, or on the green arrows for adjacent maps.


METAR-TAF: